Terminal Aerodrome Forecast
Issued by NWS San Angelo, TX

Home | Current Version | Previous Version | Text Only | Print | Product List | Glossary On
Versions: 1 2 3 4 5 6 7 8 9 10 11 12 13 14
071
FTUS44 KSJT 141727
TAFABI
TAF
KABI 141727Z 1418/1518 29010KT P6SM BKN028
     FM141830 34011KT P6SM FEW035 BKN250
     FM150400 35005KT P6SM SCT250=

USA.gov is the U.S. government's official web portal to all federal, state and local government web resources and services.